Time;durP1;ratioP1;P1;durP2;ratioP2;P2;SDS_P1;SDS_P2;PMS_P1;PMS_P2;Temp;Humidity;BMP_temperature;BMP_pressure;BME280_temperature;BME280_humidity;BME280_pressure;Samples;Min_cycle;Max_cycle;Signal;HPM_P1;HPM_P2
2021/09/05 00:06:45;;;;;;;11.00;3.83;;;;;;;12.79;76.91;101201.88;21011839;83;99266;-91
2021/09/05 00:36:46;;;;;;;12.07;3.50;;;;;;;12.75;78.44;101209.31;21011053;83;99392;-90
2021/09/05 01:06:47;;;;;;;13.07;4.20;;;;;;;12.68;79.50;101224.98;21052310;82;99568;-89
2021/09/05 01:36:51;;;;;;;10.23;4.20;;;;;;;12.53;80.02;101239.16;21056014;81;99620;-92
2021/09/05 02:06:51;;;;;;;16.57;6.03;;;;;;;12.43;81.35;101252.20;21356629;81;100287;-90
2021/09/05 02:36:52;;;;;;;13.57;5.67;;;;;;;12.26;82.50;101280.91;21347700;81;100565;-88
2021/09/05 03:06:53;;;;;;;9.93;4.57;;;;;;;12.03;84.76;101303.52;21342513;81;99763;-92
2021/09/05 03:36:54;;;;;;;10.15;4.35;;;;;;;12.05;85.18;101314.41;21332299;81;165376;-89
2021/09/05 04:07:01;;;;;;;8.57;4.13;;;;;;;12.21;83.05;101306.82;21163249;82;136582;-89
2021/09/05 04:37:03;;;;;;;8.37;3.70;;;;;;;12.15;82.65;101327.61;21176987;82;99679;-89
2021/09/05 05:07:04;;;;;;;;;;;;;;;11.95;83.02;101358.35;21362298;81;99537;-87
2021/09/05 05:37:05;;;;;;;8.57;3.20;;;;;;;11.84;84.83;101387.08;21334410;81;85592;-89
2021/09/05 06:07:06;;;;;;;7.80;3.37;;;;;;;12.09;84.78;101422.08;21072330;82;141757;-89
2021/09/05 06:37:07;;;;;;;8.53;3.30;;;;;;;12.71;83.31;101434.95;21070073;81;99799;-90
2021/09/05 07:07:07;;;;;;;11.57;3.10;;;;;;;13.55;80.58;101440.56;21339584;81;99920;-84
2021/09/05 07:37:09;;;;;;;;;;;;;;;14.40;77.08;101476.55;21322450;81;174803;-88
2021/09/05 08:07:10;;;;;;;7.72;2.35;;;;;;;15.23;72.94;101509.73;21370265;81;85630;-90
2021/09/05 08:37:11;;;;;;;6.10;2.50;;;;;;;16.36;68.55;101534.39;21351227;81;104313;-87
2021/09/05 09:07:16;;;;;;;31.70;8.88;;;;;;;17.79;66.08;101544.52;21380479;81;99996;-86
2021/09/05 09:37:23;;;;;;;4.60;1.72;;;;;;;20.30;58.38;101553.33;21365067;81;99726;-85
2021/09/05 10:07:24;;;;;;;5.75;2.20;;;;;;;24.00;51.17;101552.00;21356271;81;99394;-85
2021/09/05 10:37:26;;;;;;;6.85;1.87;;;;;;;24.89;44.86;101538.63;21348683;81;99364;-84
2021/09/05 11:07:33;;;;;;;3.80;1.72;;;;;;;25.44;42.13;101531.70;21332088;81;99320;-89
2021/09/05 11:37:42;;;;;;;6.42;2.02;;;;;;;24.45;41.68;101537.28;21294025;81;143711;-86
2021/09/05 12:07:43;;;;;;;5.67;2.08;;;;;;;25.44;41.48;101521.84;20970183;83;99794;-85
2021/09/05 12:37:44;;;;;;;5.92;1.82;;;;;;;25.16;42.18;101516.45;20957731;83;99558;-84
2021/09/05 13:07:45;;;;;;;5.58;2.50;;;;;;;23.74;43.54;101505.23;21337114;81;99788;-84
2021/09/05 13:37:46;;;;;;;5.03;2.58;;;;;;;23.43;43.03;101496.38;21358581;81;99538;-83
2021/09/05 14:07:46;;;;;;;4.67;1.97;;;;;;;22.91;43.35;101480.77;21328866;81;99557;-83
2021/09/05 14:38:16;;;;;;;3.72;1.70;;;;;;;22.77;44.32;101477.66;21322244;81;99606;-83
2021/09/05 17:09:01;;;;;;;7.00;2.60;;;;;;;18.71;50.59;101447.50;21112147;82;99343;-84
2021/09/05 17:39:06;;;;;;;11.73;2.67;;;;;;;17.90;53.38;101466.52;21004513;82;99414;-86
2021/09/05 18:09:07;;;;;;;6.83;2.33;;;;;;;17.00;55.72;101484.81;21340130;81;99918;-84
2021/09/05 18:39:08;;;;;;;;;;;;;;;16.11;58.21;101498.72;21303561;80;147452;-85
2021/09/05 19:09:09;;;;;;;7.87;2.70;;;;;;;15.38;60.99;101519.20;21344958;81;85510;-84
2021/09/05 19:39:11;;;;;;;7.00;3.22;;;;;;;14.78;61.15;101523.91;21439814;81;99219;-86
2021/09/05 20:09:12;;;;;;;7.87;3.00;;;;;;;14.16;62.10;101536.54;21364351;81;99326;-86
2021/09/05 20:39:13;;;;;;;10.17;3.03;;;;;;;13.56;62.90;101545.88;21377100;81;99432;-85
2021/09/05 21:09:14;;;;;;;7.47;3.03;;;;;;;13.09;63.32;101557.87;21404688;81;99507;-90
2021/09/05 21:39:15;;;;;;;5.77;2.40;;;;;;;12.73;63.97;101568.00;21377796;80;99440;-89
2021/09/05 22:09:16;;;;;;;7.40;2.87;;;;;;;12.30;64.66;101571.58;21644663;80;99444;-91
2021/09/05 22:39:17;;;;;;;9.47;3.30;;;;;;;11.88;65.55;101572.78;21681442;80;99417;-91
2021/09/05 23:09:18;;;;;;;10.20;3.50;;;;;;;11.47;66.26;101582.97;21603052;80;100002;-90
2021/09/05 23:39:19;;;;;;;9.13;3.80;;;;;;;11.21;67.43;101594.25;21607023;80;99656;-90
